sensor_id;sensor_type;location;lat;lon;timestamp;temperature;humidity
18729;DHT22;9493;51.884;5.188;2023-06-14T00:01:14;19.40;62.30
18729;DHT22;9493;51.884;5.188;2023-06-14T00:03:41;19.40;62.60
18729;DHT22;9493;51.884;5.188;2023-06-14T00:06:08;19.30;62.80
18729;DHT22;9493;51.884;5.188;2023-06-14T00:08:34;19.30;63.10
18729;DHT22;9493;51.884;5.188;2023-06-14T00:11:01;19.30;63.30
18729;DHT22;9493;51.884;5.188;2023-06-14T00:13:28;19.30;63.50
18729;DHT22;9493;51.884;5.188;2023-06-14T00:15:56;19.20;63.70
18729;DHT22;9493;51.884;5.188;2023-06-14T00:18:23;19.10;63.90
18729;DHT22;9493;51.884;5.188;2023-06-14T00:20:52;19.10;64.10
18729;DHT22;9493;51.884;5.188;2023-06-14T00:23:19;19.10;64.30
18729;DHT22;9493;51.884;5.188;2023-06-14T00:25:46;19.10;64.50
18729;DHT22;9493;51.884;5.188;2023-06-14T00:28:13;19.00;64.70
18729;DHT22;9493;51.884;5.188;2023-06-14T00:30:40;19.10;64.90
18729;DHT22;9493;51.884;5.188;2023-06-14T00:33:08;19.00;65.20
18729;DHT22;9493;51.884;5.188;2023-06-14T00:35:34;18.90;65.30
18729;DHT22;9493;51.884;5.188;2023-06-14T00:38:01;18.90;65.40
18729;DHT22;9493;51.884;5.188;2023-06-14T00:40:28;18.90;65.50
18729;DHT22;9493;51.884;5.188;2023-06-14T00:42:55;18.80;65.50
18729;DHT22;9493;51.884;5.188;2023-06-14T00:45:22;18.70;65.40
18729;DHT22;9493;51.884;5.188;2023-06-14T00:47:50;18.80;65.40
18729;DHT22;9493;51.884;5.188;2023-06-14T00:50:22;18.70;65.30
18729;DHT22;9493;51.884;5.188;2023-06-14T00:52:49;18.70;65.40
18729;DHT22;9493;51.884;5.188;2023-06-14T00:55:16;19.10;65.40
18729;DHT22;9493;51.884;5.188;2023-06-14T00:57:43;18.70;65.40
18729;DHT22;9493;51.884;5.188;2023-06-14T01:00:12;18.70;65.40
18729;DHT22;9493;51.884;5.188;2023-06-14T01:02:39;18.60;65.40
18729;DHT22;9493;51.884;5.188;2023-06-14T01:05:06;18.70;65.40
18729;DHT22;9493;51.884;5.188;2023-06-14T01:07:47;18.60;65.40
18729;DHT22;9493;51.884;5.188;2023-06-14T01:10:26;18.60;65.30
18729;DHT22;9493;51.884;5.188;2023-06-14T01:13:02;18.60;65.30
18729;DHT22;9493;51.884;5.188;2023-06-14T01:15:30;18.60;65.30
18729;DHT22;9493;51.884;5.188;2023-06-14T01:17:57;18.50;65.20
18729;DHT22;9493;51.884;5.188;2023-06-14T01:20:29;18.50;65.20
18729;DHT22;9493;51.884;5.188;2023-06-14T01:22:58;18.50;65.20
18729;DHT22;9493;51.884;5.188;2023-06-14T01:25:25;18.50;65.20
18729;DHT22;9493;51.884;5.188;2023-06-14T01:27:53;18.40;65.20
18729;DHT22;9493;51.884;5.188;2023-06-14T01:30:23;18.50;65.20
18729;DHT22;9493;51.884;5.188;2023-06-14T01:32:52;18.60;65.30
18729;DHT22;9493;51.884;5.188;2023-06-14T01:35:19;18.30;65.30
18729;DHT22;9493;51.884;5.188;2023-06-14T01:37:47;18.30;65.40
18729;DHT22;9493;51.884;5.188;2023-06-14T01:40:15;18.20;65.50
18729;DHT22;9493;51.884;5.188;2023-06-14T01:42:44;18.20;65.60
18729;DHT22;9493;51.884;5.188;2023-06-14T01:45:12;18.40;65.70
18729;DHT22;9493;51.884;5.188;2023-06-14T01:47:40;18.10;65.80
18729;DHT22;9493;51.884;5.188;2023-06-14T01:50:08;18.00;66.00
18729;DHT22;9493;51.884;5.188;2023-06-14T01:52:36;18.10;66.10
18729;DHT22;9493;51.884;5.188;2023-06-14T01:55:03;18.00;66.30
18729;DHT22;9493;51.884;5.188;2023-06-14T01:57:31;18.00;66.40
18729;DHT22;9493;51.884;5.188;2023-06-14T01:59:58;18.00;66.50
18729;DHT22;9493;51.884;5.188;2023-06-14T02:02:25;18.00;66.50
18729;DHT22;9493;51.884;5.188;2023-06-14T02:04:52;17.90;66.60
18729;DHT22;9493;51.884;5.188;2023-06-14T02:07:22;17.90;66.70
18729;DHT22;9493;51.884;5.188;2023-06-14T02:09:49;17.80;66.90
18729;DHT22;9493;51.884;5.188;2023-06-14T02:12:16;17.80;67.10
18729;DHT22;9493;51.884;5.188;2023-06-14T02:14:44;17.80;67.20
18729;DHT22;9493;51.884;5.188;2023-06-14T02:17:11;17.70;67.40
18729;DHT22;9493;51.884;5.188;2023-06-14T02:19:38;17.70;67.70
18729;DHT22;9493;51.884;5.188;2023-06-14T02:22:05;17.80;67.90
18729;DHT22;9493;51.884;5.188;2023-06-14T02:24:32;17.70;68.00
18729;DHT22;9493;51.884;5.188;2023-06-14T02:26:59;17.70;68.10
18729;DHT22;9493;51.884;5.188;2023-06-14T02:29:25;17.60;68.20
18729;DHT22;9493;51.884;5.188;2023-06-14T02:31:54;17.60;68.30
18729;DHT22;9493;51.884;5.188;2023-06-14T02:34:20;17.60;68.40
18729;DHT22;9493;51.884;5.188;2023-06-14T02:36:47;17.50;68.50
18729;DHT22;9493;51.884;5.188;2023-06-14T02:39:15;17.40;68.60
18729;DHT22;9493;51.884;5.188;2023-06-14T02:41:43;17.50;68.80
18729;DHT22;9493;51.884;5.188;2023-06-14T02:44:10;17.30;69.00
18729;DHT22;9493;51.884;5.188;2023-06-14T02:46:38;17.30;69.20
18729;DHT22;9493;51.884;5.188;2023-06-14T02:49:06;17.30;69.40
18729;DHT22;9493;51.884;5.188;2023-06-14T02:51:33;17.30;69.60
18729;DHT22;9493;51.884;5.188;2023-06-14T02:54:00;17.30;69.80
18729;DHT22;9493;51.884;5.188;2023-06-14T02:56:27;17.30;70.00
18729;DHT22;9493;51.884;5.188;2023-06-14T02:58:53;17.30;70.10
18729;DHT22;9493;51.884;5.188;2023-06-14T03:01:20;17.30;70.20
18729;DHT22;9493;51.884;5.188;2023-06-14T03:03:48;17.20;70.30
18729;DHT22;9493;51.884;5.188;2023-06-14T03:06:16;17.20;70.50
18729;DHT22;9493;51.884;5.188;2023-06-14T03:08:44;17.20;70.60
18729;DHT22;9493;51.884;5.188;2023-06-14T03:11:11;17.20;70.70
18729;DHT22;9493;51.884;5.188;2023-06-14T03:13:38;17.10;70.90
18729;DHT22;9493;51.884;5.188;2023-06-14T03:16:06;17.10;71.10
18729;DHT22;9493;51.884;5.188;2023-06-14T03:18:34;17.10;71.30
18729;DHT22;9493;51.884;5.188;2023-06-14T03:21:01;17.10;71.40
18729;DHT22;9493;51.884;5.188;2023-06-14T03:23:30;17.10;71.60
18729;DHT22;9493;51.884;5.188;2023-06-14T03:25:57;17.00;71.80
18729;DHT22;9493;51.884;5.188;2023-06-14T03:28:24;17.20;71.90
18729;DHT22;9493;51.884;5.188;2023-06-14T03:30:51;17.00;72.00
18729;DHT22;9493;51.884;5.188;2023-06-14T03:33:18;17.00;72.10
18729;DHT22;9493;51.884;5.188;2023-06-14T03:35:44;17.00;72.30
18729;DHT22;9493;51.884;5.188;2023-06-14T03:38:11;17.00;72.40
18729;DHT22;9493;51.884;5.188;2023-06-14T03:40:39;17.00;72.50
18729;DHT22;9493;51.884;5.188;2023-06-14T03:43:06;16.90;72.60
18729;DHT22;9493;51.884;5.188;2023-06-14T03:45:33;17.00;72.70
18729;DHT22;9493;51.884;5.188;2023-06-14T03:48:00;16.90;72.80
18729;DHT22;9493;51.884;5.188;2023-06-14T03:50:27;17.10;72.90
18729;DHT22;9493;51.884;5.188;2023-06-14T03:52:53;17.00;72.90
18729;DHT22;9493;51.884;5.188;2023-06-14T03:55:20;17.00;72.90
18729;DHT22;9493;51.884;5.188;2023-06-14T03:57:52;17.10;73.00
18729;DHT22;9493;51.884;5.188;2023-06-14T04:00:19;16.90;73.10
18729;DHT22;9493;51.884;5.188;2023-06-14T04:02:45;17.00;73.10
18729;DHT22;9493;51.884;5.188;2023-06-14T04:05:13;17.00;73.20
18729;DHT22;9493;51.884;5.188;2023-06-14T04:07:42;17.00;73.40
18729;DHT22;9493;51.884;5.188;2023-06-14T04:10:11;17.00;74.30
18729;DHT22;9493;51.884;5.188;2023-06-14T04:12:38;17.00;74.90
18729;DHT22;9493;51.884;5.188;2023-06-14T04:15:08;16.90;75.40
18729;DHT22;9493;51.884;5.188;2023-06-14T04:17:36;17.00;75.80
18729;DHT22;9493;51.884;5.188;2023-06-14T04:20:04;16.90;76.30
18729;DHT22;9493;51.884;5.188;2023-06-14T04:22:31;16.90;76.60
18729;DHT22;9493;51.884;5.188;2023-06-14T04:24:58;16.90;77.10
18729;DHT22;9493;51.884;5.188;2023-06-14T04:27:26;16.90;77.50
18729;DHT22;9493;51.884;5.188;2023-06-14T04:29:56;17.00;77.80
18729;DHT22;9493;51.884;5.188;2023-06-14T04:32:26;16.90;78.30
18729;DHT22;9493;51.884;5.188;2023-06-14T04:34:55;16.90;78.60
18729;DHT22;9493;51.884;5.188;2023-06-14T04:37:23;16.90;78.90
18729;DHT22;9493;51.884;5.188;2023-06-14T04:39:49;17.00;79.20
18729;DHT22;9493;51.884;5.188;2023-06-14T04:42:17;16.90;79.30
18729;DHT22;9493;51.884;5.188;2023-06-14T04:44:46;17.00;79.70
18729;DHT22;9493;51.884;5.188;2023-06-14T04:47:14;17.00;79.70
18729;DHT22;9493;51.884;5.188;2023-06-14T04:49:43;17.10;79.80
18729;DHT22;9493;51.884;5.188;2023-06-14T04:52:11;17.10;80.10
18729;DHT22;9493;51.884;5.188;2023-06-14T04:54:38;17.00;80.30
18729;DHT22;9493;51.884;5.188;2023-06-14T04:57:07;17.00;80.50
18729;DHT22;9493;51.884;5.188;2023-06-14T04:59:34;17.10;80.70
18729;DHT22;9493;51.884;5.188;2023-06-14T05:02:05;17.10;80.90
18729;DHT22;9493;51.884;5.188;2023-06-14T05:04:32;17.20;81.20
18729;DHT22;9493;51.884;5.188;2023-06-14T05:07:01;17.10;81.50
18729;DHT22;9493;51.884;5.188;2023-06-14T05:09:28;17.20;81.60
18729;DHT22;9493;51.884;5.188;2023-06-14T05:11:55;17.20;81.50
18729;DHT22;9493;51.884;5.188;2023-06-14T05:14:23;17.40;81.40
18729;DHT22;9493;51.884;5.188;2023-06-14T05:16:50;17.30;81.30
18729;DHT22;9493;51.884;5.188;2023-06-14T05:19:17;17.30;81.00
18729;DHT22;9493;51.884;5.188;2023-06-14T05:21:44;17.30;80.80
18729;DHT22;9493;51.884;5.188;2023-06-14T05:24:13;17.40;80.70
18729;DHT22;9493;51.884;5.188;2023-06-14T05:26:39;17.50;80.60
18729;DHT22;9493;51.884;5.188;2023-06-14T05:29:06;17.60;80.70
18729;DHT22;9493;51.884;5.188;2023-06-14T05:31:33;17.70;80.90
18729;DHT22;9493;51.884;5.188;2023-06-14T05:34:00;17.70;81.10
18729;DHT22;9493;51.884;5.188;2023-06-14T05:36:26;17.70;81.30
18729;DHT22;9493;51.884;5.188;2023-06-14T05:38:54;17.70;81.10
18729;DHT22;9493;51.884;5.188;2023-06-14T05:41:24;17.80;81.20
18729;DHT22;9493;51.884;5.188;2023-06-14T05:43:51;17.90;81.10
18729;DHT22;9493;51.884;5.188;2023-06-14T05:46:18;17.90;81.00
18729;DHT22;9493;51.884;5.188;2023-06-14T05:48:47;18.10;80.80
18729;DHT22;9493;51.884;5.188;2023-06-14T05:51:14;18.20;80.30
18729;DHT22;9493;51.884;5.188;2023-06-14T05:53:44;18.30;79.70
18729;DHT22;9493;51.884;5.188;2023-06-14T05:56:10;18.40;78.70
18729;DHT22;9493;51.884;5.188;2023-06-14T05:58:39;18.30;78.20
18729;DHT22;9493;51.884;5.188;2023-06-14T06:01:06;18.50;77.90
18729;DHT22;9493;51.884;5.188;2023-06-14T06:03:33;18.50;77.40
18729;DHT22;9493;51.884;5.188;2023-06-14T06:05:59;18.60;77.30
18729;DHT22;9493;51.884;5.188;2023-06-14T06:08:26;18.60;76.90
18729;DHT22;9493;51.884;5.188;2023-06-14T06:10:53;18.80;76.70
18729;DHT22;9493;51.884;5.188;2023-06-14T06:13:20;18.90;76.70
18729;DHT22;9493;51.884;5.188;2023-06-14T06:15:48;19.00;76.70
18729;DHT22;9493;51.884;5.188;2023-06-14T06:18:15;19.10;76.50
18729;DHT22;9493;51.884;5.188;2023-06-14T06:20:41;19.30;76.50
18729;DHT22;9493;51.884;5.188;2023-06-14T06:23:09;19.30;76.50
18729;DHT22;9493;51.884;5.188;2023-06-14T06:25:36;19.40;76.30
18729;DHT22;9493;51.884;5.188;2023-06-14T06:28:03;19.50;76.00
18729;DHT22;9493;51.884;5.188;2023-06-14T06:30:30;19.70;74.90
18729;DHT22;9493;51.884;5.188;2023-06-14T06:32:59;19.70;74.10
18729;DHT22;9493;51.884;5.188;2023-06-14T06:35:26;19.80;73.70
18729;DHT22;9493;51.884;5.188;2023-06-14T06:37:52;19.90;73.40
18729;DHT22;9493;51.884;5.188;2023-06-14T06:40:19;20.10;72.90
18729;DHT22;9493;51.884;5.188;2023-06-14T06:42:46;20.30;72.90
18729;DHT22;9493;51.884;5.188;2023-06-14T06:45:12;20.30;72.50
18729;DHT22;9493;51.884;5.188;2023-06-14T06:47:39;20.40;72.20
18729;DHT22;9493;51.884;5.188;2023-06-14T06:50:08;20.60;71.80
18729;DHT22;9493;51.884;5.188;2023-06-14T06:52:35;20.70;71.40
18729;DHT22;9493;51.884;5.188;2023-06-14T06:55:02;20.80;71.10
18729;DHT22;9493;51.884;5.188;2023-06-14T06:57:28;21.00;70.60
18729;DHT22;9493;51.884;5.188;2023-06-14T06:59:56;21.20;70.20
18729;DHT22;9493;51.884;5.188;2023-06-14T07:02:23;21.30;70.00
18729;DHT22;9493;51.884;5.188;2023-06-14T07:04:50;21.50;69.80
18729;DHT22;9493;51.884;5.188;2023-06-14T07:07:18;21.70;69.40
18729;DHT22;9493;51.884;5.188;2023-06-14T07:09:45;21.80;69.10
18729;DHT22;9493;51.884;5.188;2023-06-14T07:12:12;21.90;68.90
18729;DHT22;9493;51.884;5.188;2023-06-14T07:14:39;21.90;68.70
18729;DHT22;9493;51.884;5.188;2023-06-14T07:17:06;21.90;68.30
18729;DHT22;9493;51.884;5.188;2023-06-14T07:19:32;22.20;68.00
18729;DHT22;9493;51.884;5.188;2023-06-14T07:21:59;22.50;68.00
18729;DHT22;9493;51.884;5.188;2023-06-14T07:24:27;22.60;67.80
18729;DHT22;9493;51.884;5.188;2023-06-14T07:26:54;22.90;68.00
18729;DHT22;9493;51.884;5.188;2023-06-14T07:29:21;23.10;67.80
18729;DHT22;9493;51.884;5.188;2023-06-14T07:31:48;23.40;67.60
18729;DHT22;9493;51.884;5.188;2023-06-14T07:34:15;23.40;67.50
18729;DHT22;9493;51.884;5.188;2023-06-14T07:36:42;23.10;67.00
18729;DHT22;9493;51.884;5.188;2023-06-14T07:39:10;23.30;66.80
18729;DHT22;9493;51.884;5.188;2023-06-14T07:41:38;23.40;66.40
18729;DHT22;9493;51.884;5.188;2023-06-14T07:44:05;23.60;66.10
18729;DHT22;9493;51.884;5.188;2023-06-14T07:46:32;23.60;65.90
18729;DHT22;9493;51.884;5.188;2023-06-14T07:49:00;23.70;65.80
18729;DHT22;9493;51.884;5.188;2023-06-14T07:51:26;24.00;65.70
18729;DHT22;9493;51.884;5.188;2023-06-14T07:53:53;24.30;65.60
18729;DHT22;9493;51.884;5.188;2023-06-14T07:56:20;24.10;65.30
18729;DHT22;9493;51.884;5.188;2023-06-14T07:58:48;24.10;65.00
18729;DHT22;9493;51.884;5.188;2023-06-14T08:01:15;24.30;64.90
18729;DHT22;9493;51.884;5.188;2023-06-14T08:03:42;24.60;64.80
18729;DHT22;9493;51.884;5.188;2023-06-14T08:06:09;24.30;64.40
18729;DHT22;9493;51.884;5.188;2023-06-14T08:08:36;24.20;63.90
18729;DHT22;9493;51.884;5.188;2023-06-14T08:11:03;24.20;63.60
18729;DHT22;9493;51.884;5.188;2023-06-14T08:13:30;24.80;63.50
18729;DHT22;9493;51.884;5.188;2023-06-14T08:15:58;25.00;63.10
18729;DHT22;9493;51.884;5.188;2023-06-14T08:18:26;24.90;62.70
18729;DHT22;9493;51.884;5.188;2023-06-14T08:20:53;25.10;62.60
18729;DHT22;9493;51.884;5.188;2023-06-14T08:23:20;25.00;62.40
18729;DHT22;9493;51.884;5.188;2023-06-14T08:25:47;25.20;62.30
18729;DHT22;9493;51.884;5.188;2023-06-14T08:28:14;25.30;62.00
18729;DHT22;9493;51.884;5.188;2023-06-14T08:30:42;25.40;61.80
18729;DHT22;9493;51.884;5.188;2023-06-14T08:33:10;25.40;61.70
18729;DHT22;9493;51.884;5.188;2023-06-14T08:35:37;25.40;61.50
18729;DHT22;9493;51.884;5.188;2023-06-14T08:38:05;25.40;61.40
18729;DHT22;9493;51.884;5.188;2023-06-14T08:40:36;25.50;61.10
18729;DHT22;9493;51.884;5.188;2023-06-14T08:43:04;25.60;61.00
18729;DHT22;9493;51.884;5.188;2023-06-14T08:45:32;25.70;60.90
18729;DHT22;9493;51.884;5.188;2023-06-14T08:47:59;25.90;60.80
18729;DHT22;9493;51.884;5.188;2023-06-14T08:50:28;25.90;60.70
18729;DHT22;9493;51.884;5.188;2023-06-14T08:52:57;26.50;60.80
18729;DHT22;9493;51.884;5.188;2023-06-14T08:55:27;26.70;60.90
18729;DHT22;9493;51.884;5.188;2023-06-14T08:57:55;26.60;60.60
18729;DHT22;9493;51.884;5.188;2023-06-14T09:00:24;26.50;60.00
18729;DHT22;9493;51.884;5.188;2023-06-14T09:02:51;26.80;59.20
18729;DHT22;9493;51.884;5.188;2023-06-14T09:05:22;26.80;58.50
18729;DHT22;9493;51.884;5.188;2023-06-14T09:07:50;26.90;58.00
18729;DHT22;9493;51.884;5.188;2023-06-14T09:10:18;26.70;57.50
18729;DHT22;9493;51.884;5.188;2023-06-14T09:12:45;26.60;57.40
18729;DHT22;9493;51.884;5.188;2023-06-14T09:15:12;26.90;57.10
18729;DHT22;9493;51.884;5.188;2023-06-14T09:17:43;27.30;56.90
18729;DHT22;9493;51.884;5.188;2023-06-14T09:20:10;27.20;56.70
18729;DHT22;9493;51.884;5.188;2023-06-14T09:22:39;27.10;56.40
18729;DHT22;9493;51.884;5.188;2023-06-14T09:25:08;27.20;55.70
18729;DHT22;9493;51.884;5.188;2023-06-14T09:27:36;27.20;55.00
18729;DHT22;9493;51.884;5.188;2023-06-14T09:30:06;27.80;54.60
18729;DHT22;9493;51.884;5.188;2023-06-14T09:32:36;28.10;54.20
18729;DHT22;9493;51.884;5.188;2023-06-14T09:35:04;28.10;53.90
18729;DHT22;9493;51.884;5.188;2023-06-14T09:37:32;27.90;53.50
18729;DHT22;9493;51.884;5.188;2023-06-14T09:40:00;27.90;53.30
18729;DHT22;9493;51.884;5.188;2023-06-14T09:42:28;27.60;53.20
18729;DHT22;9493;51.884;5.188;2023-06-14T09:44:56;27.10;53.00
18729;DHT22;9493;51.884;5.188;2023-06-14T09:47:23;27.40;53.00
18729;DHT22;9493;51.884;5.188;2023-06-14T09:49:51;27.60;52.90
18729;DHT22;9493;51.884;5.188;2023-06-14T09:52:21;28.00;52.80
18729;DHT22;9493;51.884;5.188;2023-06-14T09:54:48;28.00;52.90
18729;DHT22;9493;51.884;5.188;2023-06-14T09:57:16;28.50;52.90
18729;DHT22;9493;51.884;5.188;2023-06-14T09:59:46;28.60;52.90
18729;DHT22;9493;51.884;5.188;2023-06-14T10:02:21;28.40;52.80
18729;DHT22;9493;51.884;5.188;2023-06-14T10:04:58;27.90;52.80
18729;DHT22;9493;51.884;5.188;2023-06-14T10:07:35;28.20;52.60
18729;DHT22;9493;51.884;5.188;2023-06-14T10:10:03;28.80;52.70
18729;DHT22;9493;51.884;5.188;2023-06-14T10:12:30;29.40;52.70
18729;DHT22;9493;51.884;5.188;2023-06-14T10:14:59;29.00;52.50
18729;DHT22;9493;51.884;5.188;2023-06-14T10:17:32;29.10;52.40
18729;DHT22;9493;51.884;5.188;2023-06-14T10:20:10;28.90;51.90
18729;DHT22;9493;51.884;5.188;2023-06-14T10:22:45;28.60;51.50
18729;DHT22;9493;51.884;5.188;2023-06-14T10:25:26;29.00;51.10
18729;DHT22;9493;51.884;5.188;2023-06-14T10:27:54;28.80;50.80
18729;DHT22;9493;51.884;5.188;2023-06-14T10:30:29;29.50;50.50
18729;DHT22;9493;51.884;5.188;2023-06-14T10:33:05;29.30;49.90
18729;DHT22;9493;51.884;5.188;2023-06-14T10:35:33;29.10;49.60
18729;DHT22;9493;51.884;5.188;2023-06-14T10:38:10;29.10;49.40
18729;DHT22;9493;51.884;5.188;2023-06-14T10:40:39;28.50;49.00
18729;DHT22;9493;51.884;5.188;2023-06-14T10:43:21;28.30;48.70
18729;DHT22;9493;51.884;5.188;2023-06-14T10:46:15;29.10;48.60
18729;DHT22;9493;51.884;5.188;2023-06-14T10:48:43;29.80;48.70
18729;DHT22;9493;51.884;5.188;2023-06-14T10:51:16;29.80;48.70
18729;DHT22;9493;51.884;5.188;2023-06-14T10:53:46;29.90;48.10
18729;DHT22;9493;51.884;5.188;2023-06-14T10:56:26;29.80;48.20
18729;DHT22;9493;51.884;5.188;2023-06-14T10:58:54;29.80;48.10
18729;DHT22;9493;51.884;5.188;2023-06-14T11:01:35;29.90;48.10
18729;DHT22;9493;51.884;5.188;2023-06-14T11:04:09;30.70;48.50
18729;DHT22;9493;51.884;5.188;2023-06-14T11:06:47;29.80;48.50
18729;DHT22;9493;51.884;5.188;2023-06-14T11:09:34;29.40;49.10
18729;DHT22;9493;51.884;5.188;2023-06-14T11:12:08;29.30;49.20
18729;DHT22;9493;51.884;5.188;2023-06-14T11:14:36;30.30;49.10
18729;DHT22;9493;51.884;5.188;2023-06-14T11:17:05;30.30;49.00
18729;DHT22;9493;51.884;5.188;2023-06-14T11:19:32;29.80;48.90
18729;DHT22;9493;51.884;5.188;2023-06-14T11:21:59;30.00;48.90
18729;DHT22;9493;51.884;5.188;2023-06-14T11:24:25;30.50;48.80
18729;DHT22;9493;51.884;5.188;2023-06-14T11:26:52;30.50;48.90
18729;DHT22;9493;51.884;5.188;2023-06-14T11:29:20;30.40;48.90
18729;DHT22;9493;51.884;5.188;2023-06-14T11:31:47;30.30;49.10
18729;DHT22;9493;51.884;5.188;2023-06-14T11:34:15;30.30;49.10
18729;DHT22;9493;51.884;5.188;2023-06-14T11:36:42;30.60;49.00
18729;DHT22;9493;51.884;5.188;2023-06-14T11:39:09;30.60;49.10
18729;DHT22;9493;51.884;5.188;2023-06-14T11:41:38;30.70;48.80
18729;DHT22;9493;51.884;5.188;2023-06-14T11:44:05;30.10;49.00
18729;DHT22;9493;51.884;5.188;2023-06-14T11:46:32;30.10;48.80
18729;DHT22;9493;51.884;5.188;2023-06-14T11:48:59;30.20;48.60
18729;DHT22;9493;51.884;5.188;2023-06-14T11:51:30;30.80;48.70
18729;DHT22;9493;51.884;5.188;2023-06-14T11:53:57;31.10;48.60
18729;DHT22;9493;51.884;5.188;2023-06-14T11:56:25;30.90;48.60
18729;DHT22;9493;51.884;5.188;2023-06-14T11:58:52;30.30;48.40
18729;DHT22;9493;51.884;5.188;2023-06-14T12:01:21;30.80;48.30
18729;DHT22;9493;51.884;5.188;2023-06-14T12:03:49;30.30;48.20
18729;DHT22;9493;51.884;5.188;2023-06-14T12:06:16;30.60;48.20
18729;DHT22;9493;51.884;5.188;2023-06-14T12:08:45;30.90;48.20
18729;DHT22;9493;51.884;5.188;2023-06-14T12:11:15;30.20;47.90
18729;DHT22;9493;51.884;5.188;2023-06-14T12:13:42;30.10;48.00
18729;DHT22;9493;51.884;5.188;2023-06-14T12:16:10;30.60;48.20
18729;DHT22;9493;51.884;5.188;2023-06-14T12:18:38;31.00;48.20
18729;DHT22;9493;51.884;5.188;2023-06-14T12:21:05;31.40;48.10
18729;DHT22;9493;51.884;5.188;2023-06-14T12:23:40;31.00;48.00
18729;DHT22;9493;51.884;5.188;2023-06-14T12:26:08;30.70;48.10
18729;DHT22;9493;51.884;5.188;2023-06-14T12:28:35;30.70;47.90
18729;DHT22;9493;51.884;5.188;2023-06-14T12:31:02;31.10;47.70
18729;DHT22;9493;51.884;5.188;2023-06-14T12:33:28;30.70;47.60
18729;DHT22;9493;51.884;5.188;2023-06-14T12:35:55;30.50;47.50
18729;DHT22;9493;51.884;5.188;2023-06-14T12:38:23;30.60;47.50
18729;DHT22;9493;51.884;5.188;2023-06-14T12:40:50;29.60;47.60
18729;DHT22;9493;51.884;5.188;2023-06-14T12:43:19;30.40;47.60
18729;DHT22;9493;51.884;5.188;2023-06-14T12:45:46;30.00;47.30
18729;DHT22;9493;51.884;5.188;2023-06-14T12:48:13;30.10;47.40
18729;DHT22;9493;51.884;5.188;2023-06-14T12:50:40;30.40;47.60
18729;DHT22;9493;51.884;5.188;2023-06-14T12:53:07;30.20;47.50
18729;DHT22;9493;51.884;5.188;2023-06-14T12:55:34;30.10;47.40
18729;DHT22;9493;51.884;5.188;2023-06-14T12:58:01;30.40;47.50
18729;DHT22;9493;51.884;5.188;2023-06-14T13:00:29;30.20;48.00
18729;DHT22;9493;51.884;5.188;2023-06-14T13:02:56;30.10;47.70
18729;DHT22;9493;51.884;5.188;2023-06-14T13:05:23;30.20;47.50
18729;DHT22;9493;51.884;5.188;2023-06-14T13:07:50;30.20;47.50
18729;DHT22;9493;51.884;5.188;2023-06-14T13:10:17;30.20;47.90
18729;DHT22;9493;51.884;5.188;2023-06-14T13:12:44;30.00;48.00
18729;DHT22;9493;51.884;5.188;2023-06-14T13:15:10;30.00;48.50
18729;DHT22;9493;51.884;5.188;2023-06-14T13:17:39;30.10;48.90
18729;DHT22;9493;51.884;5.188;2023-06-14T13:20:06;30.10;49.00
18729;DHT22;9493;51.884;5.188;2023-06-14T13:22:34;30.30;49.30
18729;DHT22;9493;51.884;5.188;2023-06-14T13:25:01;30.30;49.30
18729;DHT22;9493;51.884;5.188;2023-06-14T13:27:28;30.90;49.10
18729;DHT22;9493;51.884;5.188;2023-06-14T13:29:55;30.80;48.80
18729;DHT22;9493;51.884;5.188;2023-06-14T13:32:23;30.40;48.60
18729;DHT22;9493;51.884;5.188;2023-06-14T13:34:51;29.70;48.70
18729;DHT22;9493;51.884;5.188;2023-06-14T13:37:18;29.60;48.60
18729;DHT22;9493;51.884;5.188;2023-06-14T13:39:45;30.00;48.50
18729;DHT22;9493;51.884;5.188;2023-06-14T13:42:12;30.60;48.90
18729;DHT22;9493;51.884;5.188;2023-06-14T13:44:38;29.90;49.00
18729;DHT22;9493;51.884;5.188;2023-06-14T13:47:06;29.90;49.10
18729;DHT22;9493;51.884;5.188;2023-06-14T13:49:33;29.90;49.20
18729;DHT22;9493;51.884;5.188;2023-06-14T13:52:02;30.00;49.30
18729;DHT22;9493;51.884;5.188;2023-06-14T13:54:29;30.00;49.30
18729;DHT22;9493;51.884;5.188;2023-06-14T13:56:56;30.50;49.10
18729;DHT22;9493;51.884;5.188;2023-06-14T13:59:23;30.30;49.00
18729;DHT22;9493;51.884;5.188;2023-06-14T14:01:50;29.70;48.80
18729;DHT22;9493;51.884;5.188;2023-06-14T14:04:16;29.80;48.60
18729;DHT22;9493;51.884;5.188;2023-06-14T14:06:43;29.60;48.40
18729;DHT22;9493;51.884;5.188;2023-06-14T14:09:12;29.20;48.30
18729;DHT22;9493;51.884;5.188;2023-06-14T14:11:39;29.10;48.30
18729;DHT22;9493;51.884;5.188;2023-06-14T14:14:07;29.30;48.40
18729;DHT22;9493;51.884;5.188;2023-06-14T14:16:36;29.60;48.40
18729;DHT22;9493;51.884;5.188;2023-06-14T14:19:03;30.00;48.60
18729;DHT22;9493;51.884;5.188;2023-06-14T14:21:31;29.60;48.80
18729;DHT22;9493;51.884;5.188;2023-06-14T14:23:58;29.90;48.70
18729;DHT22;9493;51.884;5.188;2023-06-14T14:26:26;30.10;48.40
18729;DHT22;9493;51.884;5.188;2023-06-14T14:28:53;29.90;47.50
18729;DHT22;9493;51.884;5.188;2023-06-14T14:31:20;30.20;47.20
18729;DHT22;9493;51.884;5.188;2023-06-14T14:33:47;30.50;47.00
18729;DHT22;9493;51.884;5.188;2023-06-14T14:36:14;30.40;46.70
18729;DHT22;9493;51.884;5.188;2023-06-14T14:38:40;30.60;46.80
18729;DHT22;9493;51.884;5.188;2023-06-14T14:41:07;30.40;46.70
18729;DHT22;9493;51.884;5.188;2023-06-14T14:43:36;30.50;47.00
18729;DHT22;9493;51.884;5.188;2023-06-14T14:46:02;30.30;47.40
18729;DHT22;9493;51.884;5.188;2023-06-14T14:48:29;30.00;47.40
18729;DHT22;9493;51.884;5.188;2023-06-14T14:50:56;29.50;47.70
18729;DHT22;9493;51.884;5.188;2023-06-14T14:53:23;29.40;48.00
18729;DHT22;9493;51.884;5.188;2023-06-14T14:55:50;29.60;48.50
18729;DHT22;9493;51.884;5.188;2023-06-14T14:58:16;29.60;48.80
18729;DHT22;9493;51.884;5.188;2023-06-14T15:00:45;30.00;49.00
18729;DHT22;9493;51.884;5.188;2023-06-14T15:03:12;30.20;49.00
18729;DHT22;9493;51.884;5.188;2023-06-14T15:05:38;30.00;49.10
18729;DHT22;9493;51.884;5.188;2023-06-14T15:08:06;29.90;48.90
18729;DHT22;9493;51.884;5.188;2023-06-14T15:10:37;30.00;48.80
18729;DHT22;9493;51.884;5.188;2023-06-14T15:13:06;29.80;48.60
18729;DHT22;9493;51.884;5.188;2023-06-14T15:15:33;29.80;48.70
18729;DHT22;9493;51.884;5.188;2023-06-14T15:18:01;29.90;48.60
18729;DHT22;9493;51.884;5.188;2023-06-14T15:20:28;29.90;48.40
18729;DHT22;9493;51.884;5.188;2023-06-14T15:22:55;29.90;48.40
18729;DHT22;9493;51.884;5.188;2023-06-14T15:25:25;29.90;48.20
18729;DHT22;9493;51.884;5.188;2023-06-14T15:27:51;29.60;48.00
18729;DHT22;9493;51.884;5.188;2023-06-14T15:30:18;29.70;47.50
18729;DHT22;9493;51.884;5.188;2023-06-14T15:32:46;29.80;47.40
18729;DHT22;9493;51.884;5.188;2023-06-14T15:35:16;29.80;47.30
18729;DHT22;9493;51.884;5.188;2023-06-14T15:37:43;29.70;47.10
18729;DHT22;9493;51.884;5.188;2023-06-14T15:40:10;29.90;46.90
18729;DHT22;9493;51.884;5.188;2023-06-14T15:42:37;29.90;46.60
18729;DHT22;9493;51.884;5.188;2023-06-14T15:45:05;30.00;46.60
18729;DHT22;9493;51.884;5.188;2023-06-14T15:47:32;30.00;46.60
18729;DHT22;9493;51.884;5.188;2023-06-14T15:49:58;30.00;46.70